Armstrong Mills, Ohio
Current Conditions -  °F | °C
As of 10:53 PM on Saturday 20 Dec 2014 (Local Time) from KHLG Reporting Station
Overcast Overcast  
Wind Chill: -2°   Ceiling: 2800
Heat Index: -2°   Visibility: 10mi
Dew Point: -6°   Wind: 0mph
Humidity: 75%   Direction: NA
Pressure: 30.26"   Gusts: NA
Location:  39.9375°N, 80.8976°W
Report Text: KHLG 210353Z AUTO 00000KT 10SM OVC028 M02/M06 A3026 RMK AO2 SLP264 T10221061
Loading
Personal Weather Stations






























Interactive Weather Map New forecast layout! Learn more

10-Day Weather Forecast

Advertisements
Track Severe Weather on mobile